createdAt,value
2019-01-23T00:00:24.663Z,99133.27
2019-01-23T00:01:28.259Z,99127.22
2019-01-23T00:02:31.947Z,99124.83
2019-01-23T00:03:35.645Z,99127.67
2019-01-23T00:04:39.233Z,99125.73
2019-01-23T00:05:42.784Z,99123.91
2019-01-23T00:06:46.474Z,99119.81
2019-01-23T00:07:50.112Z,99121.52
2019-01-23T00:08:53.641Z,99119.92
2019-01-23T00:09:57.183Z,99123.20
2019-01-23T00:11:00.780Z,99116.81
2019-01-23T00:12:04.752Z,99112.93
2019-01-23T00:13:08.490Z,99114.87
2019-01-23T00:14:12.086Z,99118.17
2019-01-23T00:15:15.968Z,99112.47
2019-01-23T00:16:19.598Z,99103.23
2019-01-23T00:17:23.177Z,99115.55
2019-01-23T00:18:26.848Z,99110.08
2019-01-23T00:19:30.543Z,99116.23
2019-01-23T00:20:34.144Z,99110.19
2019-01-23T00:21:37.720Z,99112.36
2019-01-23T00:22:41.324Z,99110.53
2019-01-23T00:23:45.019Z,99108.94
2019-01-23T00:24:48.703Z,99105.40
2019-01-23T00:25:52.326Z,99105.97
2019-01-23T00:26:55.896Z,99106.54
2019-01-23T00:27:59.705Z,99108.14
2019-01-23T00:29:03.534Z,99103.00
2019-01-23T00:30:10.104Z,99106.31
2019-01-23T00:31:13.670Z,99103.88
2019-01-23T00:32:17.372Z,99092.94
2019-01-23T00:33:20.960Z,99097.16
2019-01-23T00:34:24.608Z,99099.09
2019-01-23T00:35:28.174Z,99095.33
2019-01-23T00:36:31.795Z,99093.39
2019-01-23T00:37:35.601Z,99093.39
2019-01-23T00:38:39.152Z,99093.39
2019-01-23T00:39:42.779Z,99084.39
2019-01-23T00:40:46.324Z,99091.80
2019-01-23T00:41:49.940Z,99086.67
2019-01-23T00:42:53.483Z,99085.87
2019-01-23T00:43:57.089Z,99085.87
2019-01-23T00:45:00.728Z,99079.03
2019-01-23T00:46:04.414Z,99081.54
2019-01-23T00:47:08.119Z,99078.58
2019-01-23T00:48:11.836Z,99075.61
2019-01-23T00:49:15.448Z,99078.34
2019-01-23T00:50:19.103Z,99071.28
2019-01-23T00:51:22.787Z,99072.42
2019-01-23T00:52:26.416Z,99071.62
2019-01-23T00:53:29.967Z,99063.72
2019-01-23T00:54:33.760Z,99066.45
2019-01-23T00:55:37.325Z,99063.72
2019-01-23T00:56:40.848Z,99062.13
2019-01-23T00:57:44.446Z,99059.96
2019-01-23T00:58:49.239Z,99059.39
2019-01-23T00:59:53.094Z,99058.59
2019-01-23T01:00:56.760Z,99057.23
2019-01-23T01:02:00.356Z,99057.00
2019-01-23T01:03:04.238Z,99057.80
2019-01-23T01:04:07.942Z,99057.80
2019-01-23T01:05:11.945Z,99052.89
2019-01-23T01:06:15.770Z,99048.00
2019-01-23T01:07:19.451Z,99048.34
2019-01-23T01:08:23.076Z,99047.87
2019-01-23T01:09:26.628Z,99047.87
2019-01-23T01:10:30.285Z,99046.05
2019-01-23T01:11:34.003Z,99043.66
2019-01-23T01:12:37.728Z,99051.86
2019-01-23T01:13:41.411Z,99049.13
2019-01-23T01:14:45.309Z,99052.77
2019-01-23T01:15:48.953Z,99048.75
2019-01-23T01:16:52.665Z,99046.84
2019-01-23T01:17:57.063Z,99046.59
2019-01-23T01:19:00.634Z,99042.83
2019-01-23T01:20:07.638Z,99050.80
2019-01-23T01:21:11.412Z,99038.03
2019-01-23T01:22:15.298Z,99048.63
2019-01-23T01:23:18.981Z,99049.54
2019-01-23T01:24:22.523Z,99046.01
2019-01-23T01:25:26.132Z,99044.07
2019-01-23T01:26:29.999Z,99044.98
2019-01-23T01:27:33.954Z,99043.61
2019-01-23T01:28:37.615Z,99037.69
2019-01-23T01:29:41.466Z,99039.05
2019-01-23T01:30:45.124Z,99033.36
2019-01-23T01:31:48.817Z,99039.16
2019-01-23T01:32:52.609Z,99033.70
2019-01-23T01:33:56.151Z,99039.16
2019-01-23T01:34:59.977Z,99037.56
2019-01-23T01:36:04.200Z,99037.56
2019-01-23T01:37:07.940Z,99033.23
2019-01-23T01:38:11.745Z,99034.03
2019-01-23T01:39:15.441Z,99032.41
2019-01-23T01:40:20.021Z,99034.91
2019-01-23T01:41:23.553Z,99030.81
2019-01-23T01:42:27.208Z,99031.95
2019-01-23T01:43:30.753Z,99031.72
2019-01-23T01:44:34.410Z,99027.16
2019-01-23T01:45:38.023Z,99033.42
2019-01-23T01:46:41.591Z,99031.27
2019-01-23T01:47:45.449Z,99025.56
2019-01-23T01:48:49.003Z,99028.87
2019-01-23T01:49:52.537Z,99030.47
2019-01-23T01:50:56.074Z,99028.07
2019-01-23T01:51:59.611Z,99022.60
2019-01-23T01:53:03.346Z,99025.91
2019-01-23T01:54:06.885Z,99020.67
2019-01-23T01:55:11.103Z,99021.23
2019-01-23T01:56:14.842Z,99024.31
2019-01-23T01:57:18.788Z,99021.23
2019-01-23T01:58:22.381Z,99025.11
2019-01-23T01:59:25.932Z,99030.57
2019-01-23T02:00:29.669Z,99023.97
2019-01-23T02:01:33.230Z,99019.64
2019-01-23T02:02:36.940Z,99027.27
2019-01-23T02:03:40.515Z,99021.34
2019-01-23T02:04:44.066Z,99022.71
2019-01-23T02:05:47.770Z,99020.55
2019-01-23T02:06:51.319Z,99022.94
2019-01-23T02:07:55.037Z,99013.48
2019-01-23T02:08:58.634Z,99014.84
2019-01-23T02:10:02.327Z,99009.16
2019-01-23T02:11:05.986Z,99007.90
2019-01-23T02:12:09.815Z,99005.39
2019-01-23T02:13:13.521Z,99008.13
2019-01-23T02:14:17.396Z,99014.16
2019-01-23T02:15:21.642Z,99013.91
2019-01-23T02:16:25.398Z,99011.51
2019-01-23T02:17:29.225Z,99008.20
2019-01-23T02:18:32.760Z,99014.23
2019-01-23T02:19:36.336Z,99008.55
2019-01-23T02:20:40.040Z,99002.52
2019-01-23T02:21:43.596Z,99000.66
2019-01-23T02:22:47.332Z,99003.39
2019-01-23T02:23:50.954Z,98996.66
2019-01-23T02:24:54.647Z,98995.30
2019-01-23T02:25:58.202Z,98991.08
2019-01-23T02:27:01.766Z,98997.00
2019-01-23T02:28:05.624Z,98989.38
2019-01-23T02:29:09.795Z,98993.24
2019-01-23T02:30:18.666Z,99000.64
2019-01-23T02:31:22.212Z,98994.95
2019-01-23T02:32:25.919Z,98995.85
2019-01-23T02:33:29.481Z,98998.02
2019-01-23T02:34:33.033Z,98988.22
2019-01-23T02:35:36.744Z,98994.48
2019-01-23T02:36:40.446Z,98986.59
2019-01-23T02:37:44.056Z,98990.16
2019-01-23T02:38:47.728Z,98982.61
2019-01-23T02:39:51.335Z,98988.88
2019-01-23T02:40:54.981Z,98980.45
2019-01-23T02:41:58.658Z,98985.11
2019-01-23T02:43:02.341Z,98986.48
2019-01-23T02:44:06.026Z,98979.41
2019-01-23T02:45:09.741Z,98978.62
2019-01-23T02:46:13.342Z,98983.52
2019-01-23T02:47:17.027Z,98978.62
2019-01-23T02:48:20.658Z,98974.30
2019-01-23T02:49:24.189Z,98975.66
2019-01-23T02:50:28.004Z,98972.13
2019-01-23T02:51:31.674Z,98976.23
2019-01-23T02:52:35.309Z,98981.46
2019-01-23T02:53:38.908Z,98978.73
2019-01-23T02:54:42.521Z,98970.87
2019-01-23T02:55:46.266Z,98969.27
2019-01-23T02:56:49.864Z,98970.41
2019-01-23T02:57:53.410Z,98962.67
2019-01-23T02:58:57.040Z,98967.91
2019-01-23T03:00:00.628Z,98960.52
2019-01-23T03:01:04.301Z,98959.48
2019-01-23T03:02:08.029Z,98958.91
2019-01-23T03:03:11.753Z,98959.48
2019-01-23T03:04:15.435Z,98952.99
2019-01-23T03:05:19.824Z,98960.05
2019-01-23T03:06:23.532Z,98954.59
2019-01-23T03:07:27.210Z,98955.73
2019-01-23T03:08:30.907Z,98949.13
2019-01-23T03:09:34.545Z,98952.42
2019-01-23T03:10:38.190Z,98950.27
2019-01-23T03:11:41.903Z,98954.36
2019-01-23T03:12:45.971Z,98952.20
2019-01-23T03:13:49.784Z,98945.94
2019-01-23T03:14:53.322Z,98942.41
2019-01-23T03:15:56.973Z,98940.21
2019-01-23T03:17:00.654Z,98937.25
2019-01-23T03:18:04.374Z,98939.19
2019-01-23T03:19:08.262Z,98934.06
2019-01-23T03:20:15.472Z,98935.20
2019-01-23T03:21:19.130Z,98937.92
2019-01-23T03:22:22.931Z,98931.44
2019-01-23T03:23:26.813Z,98933.94
2019-01-23T03:24:30.517Z,98932.00
2019-01-23T03:25:34.763Z,98932.91
2019-01-23T03:26:38.395Z,98928.02
2019-01-23T03:27:42.108Z,98931.88
2019-01-23T03:28:48.425Z,98934.38
2019-01-23T03:29:52.069Z,98932.45
2019-01-23T03:30:55.891Z,98929.48
2019-01-23T03:32:00.431Z,98936.31
2019-01-23T03:33:04.179Z,98933.13
2019-01-23T03:34:07.789Z,98926.87
2019-01-23T03:35:11.557Z,98932.33
2019-01-23T03:36:15.244Z,98936.09
2019-01-23T03:37:18.857Z,98934.16
2019-01-23T03:38:22.632Z,98929.48
2019-01-23T03:39:26.226Z,98928.59
2019-01-23T03:40:29.824Z,98929.05
2019-01-23T03:41:33.611Z,98925.41
2019-01-23T03:42:37.236Z,98930.20
2019-01-23T03:43:40.787Z,98924.96
2019-01-23T03:44:44.561Z,98915.32
2019-01-23T03:45:48.086Z,98926.14
2019-01-23T03:46:51.950Z,98921.13
2019-01-23T03:47:55.569Z,98917.27
2019-01-23T03:48:59.398Z,98923.77
2019-01-23T03:50:03.072Z,98925.50
2019-01-23T03:51:06.812Z,98914.13
2019-01-23T03:52:10.883Z,98920.68
2019-01-23T03:53:14.669Z,98913.28
2019-01-23T03:54:18.409Z,98916.16
2019-01-23T03:55:23.021Z,98909.23
2019-01-23T03:56:26.782Z,98908.99
2019-01-23T03:57:30.746Z,98910.37
2019-01-23T03:58:34.813Z,98910.83
2019-01-23T03:59:38.569Z,98907.17
2019-01-23T04:00:42.332Z,98907.50
2019-01-23T04:01:46.218Z,98905.20
2019-01-23T04:02:51.789Z,98907.62
2019-01-23T04:03:56.619Z,98907.16
2019-01-23T04:05:00.645Z,98908.72
2019-01-23T04:06:04.635Z,98904.26
2019-01-23T04:07:08.610Z,98899.06
2019-01-23T04:08:13.072Z,98911.52
2019-01-23T04:09:17.531Z,98901.19
2019-01-23T04:10:22.960Z,98905.38
2019-01-23T04:11:26.562Z,98907.86
2019-01-23T04:12:30.271Z,98905.06
2019-01-23T04:13:34.069Z,98903.65
2019-01-23T04:14:37.731Z,98902.62
2019-01-23T04:15:41.365Z,98905.00
2019-01-23T04:16:45.094Z,98901.86
2019-01-23T04:17:48.914Z,98902.45
2019-01-23T04:18:52.376Z,98892.22
2019-01-23T04:19:56.312Z,98894.61
2019-01-23T04:21:00.155Z,98894.09
2019-01-23T04:22:03.919Z,98889.98
2019-01-23T04:23:07.674Z,98896.13
2019-01-23T04:24:11.267Z,98891.62
2019-01-23T04:25:15.155Z,98896.47
2019-01-23T04:26:18.833Z,98895.10
2019-01-23T04:27:22.325Z,98894.71
2019-01-23T04:28:26.134Z,98891.86
2019-01-23T04:29:29.826Z,98889.30
2019-01-23T04:30:33.450Z,98892.70
2019-01-23T04:31:37.179Z,98890.97
2019-01-23T04:32:40.704Z,98883.39
2019-01-23T04:33:44.434Z,98887.11
2019-01-23T04:34:48.053Z,98882.27
2019-01-23T04:35:51.627Z,98882.49
2019-01-23T04:36:55.128Z,98888.16
2019-01-23T04:37:58.668Z,98884.91
2019-01-23T04:39:02.157Z,98887.16
2019-01-23T04:40:11.170Z,98885.78
2019-01-23T04:41:15.292Z,98883.68
2019-01-23T04:42:19.025Z,98890.04
2019-01-23T04:43:22.542Z,98887.16
2019-01-23T04:44:26.040Z,98886.57
2019-01-23T04:45:29.623Z,98887.58
2019-01-23T04:46:33.150Z,98888.52
2019-01-23T04:47:36.834Z,98884.55
2019-01-23T04:48:40.392Z,98893.08
2019-01-23T04:49:44.104Z,98890.91
2019-01-23T04:50:51.795Z,98883.90
2019-01-23T04:51:56.901Z,98882.74
2019-01-23T04:53:07.736Z,98879.30
2019-01-23T04:54:12.051Z,98885.05
2019-01-23T04:55:15.620Z,98882.05
2019-01-23T04:56:19.234Z,98884.31
2019-01-23T04:57:22.767Z,98884.10
2019-01-23T04:58:26.349Z,98887.28
2019-01-23T04:59:29.865Z,98885.11
2019-01-23T05:00:33.508Z,98881.58
2019-01-23T05:01:37.027Z,98884.80
2019-01-23T05:02:40.622Z,98878.75
2019-01-23T05:03:44.233Z,98874.28
2019-01-23T05:04:47.804Z,98878.83
2019-01-23T05:05:51.366Z,98883.52
2019-01-23T05:06:54.939Z,98876.52
2019-01-23T05:07:58.423Z,98877.89
2019-01-23T05:09:02.031Z,98875.57
2019-01-23T05:10:06.760Z,98873.77
2019-01-23T05:11:10.334Z,98870.80
2019-01-23T05:12:13.822Z,98867.99
2019-01-23T05:13:17.319Z,98870.27
2019-01-23T05:14:20.925Z,98871.21
2019-01-23T05:15:24.493Z,98866.34
2019-01-23T05:16:27.975Z,98862.16
2019-01-23T05:17:31.552Z,98871.55
2019-01-23T05:18:35.067Z,98866.89
2019-01-23T05:19:38.701Z,98868.05
2019-01-23T05:20:42.183Z,98857.58
2019-01-23T05:21:45.683Z,98869.92
2019-01-23T05:22:49.309Z,98859.88
2019-01-23T05:23:52.871Z,98863.64
2019-01-23T05:24:56.377Z,98866.02
2019-01-23T05:25:59.913Z,98860.39
2019-01-23T05:27:03.559Z,98863.59
2019-01-23T05:28:07.290Z,98867.31
2019-01-23T05:29:10.761Z,98869.84
2019-01-23T05:30:19.759Z,98866.95
2019-01-23T05:31:23.321Z,98867.65
2019-01-23T05:32:26.815Z,98870.38
2019-01-23T05:33:30.336Z,98867.84
2019-01-23T05:34:33.833Z,98864.74
2019-01-23T05:35:37.665Z,98871.97
2019-01-23T05:36:41.361Z,98873.92
2019-01-23T05:37:44.875Z,98866.63
2019-01-23T05:38:48.454Z,98870.23
2019-01-23T05:39:51.935Z,98876.52
2019-01-23T05:40:55.508Z,98879.22
2019-01-23T05:41:59.039Z,98875.95
2019-01-23T05:43:02.600Z,98873.21
2019-01-23T05:44:06.132Z,98869.30
2019-01-23T05:45:12.407Z,98869.52
2019-01-23T05:46:16.093Z,98870.98
2019-01-23T05:47:19.572Z,98869.66
2019-01-23T05:48:23.065Z,98866.84
2019-01-23T05:49:26.707Z,98868.80
2019-01-23T05:50:30.237Z,98869.30
2019-01-23T05:51:33.995Z,98867.28
2019-01-23T05:52:37.652Z,98862.73
2019-01-23T05:53:41.361Z,98861.22
2019-01-23T05:54:44.895Z,98860.53
2019-01-23T05:55:48.523Z,98861.62
2019-01-23T05:56:52.083Z,98863.88
2019-01-23T05:57:55.594Z,98858.50
2019-01-23T05:58:59.084Z,98859.70
2019-01-23T06:00:02.968Z,98857.75
2019-01-23T06:01:06.653Z,98859.95
2019-01-23T06:02:10.170Z,98859.27
2019-01-23T06:03:13.656Z,98861.78
2019-01-23T06:04:17.217Z,98861.52
2019-01-23T06:05:20.983Z,98858.80
2019-01-23T06:06:24.528Z,98863.07
2019-01-23T06:07:28.029Z,98863.56
2019-01-23T06:08:31.524Z,98860.39
2019-01-23T06:09:35.104Z,98861.76
2019-01-23T06:10:38.609Z,98859.38
2019-01-23T06:11:42.205Z,98865.30
2019-01-23T06:12:45.807Z,98859.45
2019-01-23T06:13:49.315Z,98861.27
2019-01-23T06:14:52.813Z,98859.89
2019-01-23T06:15:56.455Z,98860.61
2019-01-23T06:17:00.045Z,98856.77
2019-01-23T06:18:04.032Z,98851.39
2019-01-23T06:19:07.695Z,98862.58
2019-01-23T06:20:19.444Z,98858.48
2019-01-23T06:21:23.034Z,98857.69
2019-01-23T06:22:26.599Z,98853.72
2019-01-23T06:23:30.197Z,98857.97
2019-01-23T06:24:33.868Z,98859.91
2019-01-23T06:25:37.392Z,98854.20
2019-01-23T06:26:40.944Z,98861.89
2019-01-23T06:27:44.551Z,98858.57
2019-01-23T06:28:48.111Z,98856.63
2019-01-23T06:29:51.617Z,98860.88
2019-01-23T06:30:55.148Z,98862.46
2019-01-23T06:31:58.615Z,98858.25
2019-01-23T06:33:02.142Z,98861.36
2019-01-23T06:34:05.702Z,98862.77
2019-01-23T06:35:09.431Z,98855.91
2019-01-23T06:36:13.003Z,98856.30
2019-01-23T06:37:16.662Z,98858.45
2019-01-23T06:38:20.156Z,98856.50
2019-01-23T06:39:23.736Z,98855.41
2019-01-23T06:40:27.306Z,98852.39
2019-01-23T06:41:30.780Z,98851.45
2019-01-23T06:42:34.307Z,98857.51
2019-01-23T06:43:37.882Z,98859.92
2019-01-23T06:44:41.367Z,98855.44
2019-01-23T06:45:44.889Z,98856.38
2019-01-23T06:46:48.379Z,98856.23
2019-01-23T06:47:52.003Z,98862.07
2019-01-23T06:48:55.677Z,98859.26
2019-01-23T06:49:59.184Z,98859.92
2019-01-23T06:51:02.670Z,98855.70
2019-01-23T06:52:06.318Z,98862.14
2019-01-23T06:53:13.941Z,98858.39
2019-01-23T06:54:15.056Z,98859.05
2019-01-23T06:55:18.805Z,98857.14
2019-01-23T06:56:22.293Z,98862.05
2019-01-23T06:57:25.898Z,98860.98
2019-01-23T06:58:29.441Z,98858.16
2019-01-23T06:59:33.068Z,98859.97
2019-01-23T07:00:36.646Z,98854.48
2019-01-23T07:01:40.171Z,98859.03
2019-01-23T07:02:43.782Z,98859.31
2019-01-23T07:03:47.275Z,98858.16
2019-01-23T07:04:50.871Z,98866.34
2019-01-23T07:05:54.418Z,98858.11
2019-01-23T07:06:58.062Z,98859.11
2019-01-23T07:08:01.605Z,98864.24
2019-01-23T07:09:07.381Z,98858.75
2019-01-23T07:10:14.246Z,98862.66
2019-01-23T07:11:17.801Z,98858.61
2019-01-23T07:12:21.294Z,98864.01
2019-01-23T07:13:24.859Z,98860.40
2019-01-23T07:14:28.343Z,98867.63
2019-01-23T07:15:31.874Z,98861.45
2019-01-23T07:16:35.452Z,98868.00
2019-01-23T07:17:38.991Z,98866.78
2019-01-23T07:18:42.517Z,98868.88
2019-01-23T07:19:46.011Z,98863.67
2019-01-23T07:20:49.578Z,98872.59
2019-01-23T07:21:53.082Z,98866.45
2019-01-23T07:22:56.661Z,98865.87
2019-01-23T07:24:00.180Z,98872.37
2019-01-23T07:25:04.803Z,98874.66
2019-01-23T07:26:08.388Z,98875.09
2019-01-23T07:27:11.918Z,98874.66
2019-01-23T07:28:15.408Z,98878.34
2019-01-23T07:29:18.876Z,98881.08
2019-01-23T07:30:27.647Z,98877.76
2019-01-23T07:31:31.146Z,98881.52
2019-01-23T07:32:34.651Z,98878.77
2019-01-23T07:33:38.242Z,98875.59
2019-01-23T07:34:44.669Z,98877.11
2019-01-23T07:35:48.181Z,98878.41
2019-01-23T07:36:51.802Z,98878.98
2019-01-23T07:37:55.419Z,98880.03
2019-01-23T07:38:58.950Z,98879.75
2019-01-23T07:40:02.577Z,98875.70
2019-01-23T07:41:06.246Z,98875.48
2019-01-23T07:42:09.784Z,98878.34
2019-01-23T07:43:13.321Z,98875.95
2019-01-23T07:44:16.955Z,98879.49
2019-01-23T07:45:23.013Z,98879.49
2019-01-23T07:46:26.577Z,98882.23
2019-01-23T07:47:30.146Z,98882.02
2019-01-23T07:48:33.688Z,98884.98
2019-01-23T07:49:37.189Z,98886.10
2019-01-23T07:50:40.795Z,98883.28
2019-01-23T07:51:44.330Z,98894.27
2019-01-23T07:52:47.919Z,98885.53
2019-01-23T07:53:51.400Z,98888.16
2019-01-23T07:54:54.887Z,98891.59
2019-01-23T07:55:58.419Z,98890.01
2019-01-23T07:57:01.958Z,98891.38
2019-01-23T07:58:05.657Z,98895.50
2019-01-23T07:59:09.988Z,98886.61
2019-01-23T08:00:18.215Z,98893.97
2019-01-23T08:01:21.716Z,98891.38
2019-01-23T08:02:25.350Z,98901.67
2019-01-23T08:03:28.924Z,98897.11
2019-01-23T08:04:32.415Z,98893.14
2019-01-23T08:05:35.980Z,98898.33
2019-01-23T08:06:39.697Z,98902.45
2019-01-23T08:07:43.274Z,98899.05
2019-01-23T08:08:46.842Z,98899.48
2019-01-23T08:09:50.375Z,98900.28
2019-01-23T08:10:53.891Z,98898.98
2019-01-23T08:11:57.594Z,98902.02
2019-01-23T08:13:01.208Z,98896.72
2019-01-23T08:14:05.521Z,98895.20
2019-01-23T08:15:20.626Z,98894.63
2019-01-23T08:16:24.148Z,98895.28
2019-01-23T08:17:32.693Z,98897.23
2019-01-23T08:18:32.970Z,98891.16
2019-01-23T08:19:36.506Z,98888.63
2019-01-23T08:20:40.072Z,98895.28
2019-01-23T08:21:43.652Z,98886.97
2019-01-23T08:22:47.278Z,98890.08
2019-01-23T08:23:50.798Z,98890.44
2019-01-23T08:24:54.283Z,98883.36
2019-01-23T08:25:57.763Z,98886.24
2019-01-23T08:27:07.028Z,98885.70
2019-01-23T08:28:06.614Z,98885.05
2019-01-23T08:29:12.519Z,98887.93
2019-01-23T08:30:21.379Z,98890.45
2019-01-23T08:31:24.995Z,98888.65
2019-01-23T08:32:28.551Z,98892.05
2019-01-23T08:33:32.129Z,98890.89
2019-01-23T08:34:35.802Z,98892.34
2019-01-23T08:35:39.262Z,98894.73
2019-01-23T08:36:42.746Z,98888.30
2019-01-23T08:37:46.611Z,98895.38
2019-01-23T08:38:50.230Z,98899.97
2019-01-23T08:39:53.803Z,98894.91
2019-01-23T08:40:57.878Z,98895.27
2019-01-23T08:42:01.429Z,98895.84
2019-01-23T08:43:05.869Z,98897.33
2019-01-23T08:44:09.439Z,98901.15
2019-01-23T08:45:14.536Z,98903.10
2019-01-23T08:46:18.141Z,98901.08
2019-01-23T08:47:21.647Z,98904.39
2019-01-23T08:48:25.211Z,98898.83
2019-01-23T08:49:28.871Z,98900.53
2019-01-23T08:50:38.110Z,98900.81
2019-01-23T08:51:41.666Z,98899.16
2019-01-23T08:52:45.179Z,98901.90
2019-01-23T08:53:48.639Z,98903.27
2019-01-23T08:54:52.258Z,98903.73
2019-01-23T08:55:55.835Z,98902.37
2019-01-23T08:56:59.360Z,98901.87
2019-01-23T08:58:03.008Z,98902.31
2019-01-23T08:59:06.624Z,98906.36
2019-01-23T09:00:13.406Z,98905.23
2019-01-23T09:01:16.909Z,98904.19
2019-01-23T09:02:20.559Z,98908.89
2019-01-23T09:03:24.192Z,98912.56
2019-01-23T09:04:27.757Z,98913.50
2019-01-23T09:05:31.266Z,98914.88
2019-01-23T09:06:34.768Z,98912.13
2019-01-23T09:07:38.400Z,98916.17
2019-01-23T09:08:41.963Z,98909.66
2019-01-23T09:09:45.531Z,98909.59
2019-01-23T09:10:49.186Z,98905.22
2019-01-23T09:11:52.817Z,98911.64
2019-01-23T09:12:56.305Z,98909.26
2019-01-23T09:13:59.929Z,98907.97
2019-01-23T09:15:04.039Z,98900.89
2019-01-23T09:16:07.628Z,98916.55
2019-01-23T09:17:11.293Z,98909.69
2019-01-23T09:18:14.879Z,98912.19
2019-01-23T09:19:18.500Z,98908.76
2019-01-23T09:20:23.024Z,98907.36
2019-01-23T09:21:26.630Z,98915.81
2019-01-23T09:22:30.212Z,98912.56
2019-01-23T09:23:33.916Z,98911.69
2019-01-23T09:24:37.418Z,98909.30
2019-01-23T09:25:41.040Z,98912.98
2019-01-23T09:26:44.560Z,98910.60
2019-01-23T09:27:48.040Z,98911.39
2019-01-23T09:28:51.595Z,98917.92
2019-01-23T09:29:55.088Z,98908.24
2019-01-23T09:31:01.611Z,98915.90
2019-01-23T09:32:35.337Z,98920.23
2019-01-23T09:33:56.978Z,98925.28
2019-01-23T09:35:03.509Z,98927.09
2019-01-23T09:36:33.948Z,98928.46
2019-01-23T09:37:58.384Z,98929.70
2019-01-23T09:39:30.210Z,98930.96
2019-01-23T09:40:36.786Z,98935.73
2019-01-23T09:41:48.541Z,98937.11
2019-01-23T09:43:06.369Z,98935.73
2019-01-23T09:44:28.003Z,98941.22
2019-01-23T09:45:37.328Z,98942.59
2019-01-23T09:46:52.649Z,98948.08
2019-01-23T09:48:07.821Z,98950.03
2019-01-23T09:49:16.938Z,98947.42
2019-01-23T09:50:23.475Z,98943.77
2019-01-23T09:51:46.119Z,98948.95
2019-01-23T09:52:52.733Z,98947.94
2019-01-23T09:54:02.165Z,98944.98
2019-01-23T09:55:09.036Z,98935.52
2019-01-23T09:56:13.311Z,98942.16
2019-01-23T09:57:16.895Z,98944.09
2019-01-23T09:58:20.419Z,98941.66
2019-01-23T09:59:23.932Z,98942.89
2019-01-23T10:00:31.807Z,98932.72
2019-01-23T10:01:34.422Z,98938.34
2019-01-23T10:02:37.913Z,98936.97
2019-01-23T10:03:41.487Z,98940.06
2019-01-23T10:04:45.036Z,98945.42
2019-01-23T10:05:48.596Z,98934.25
2019-01-23T10:06:52.215Z,98937.68
2019-01-23T10:07:55.744Z,98941.22
2019-01-23T10:08:59.344Z,98929.02
2019-01-23T10:10:02.928Z,98943.05
2019-01-23T10:11:06.583Z,98942.39
2019-01-23T10:12:10.063Z,98944.34
2019-01-23T10:13:13.641Z,98942.75
2019-01-23T10:14:17.211Z,98945.62
2019-01-23T10:15:24.060Z,98943.68
2019-01-23T10:16:27.568Z,98945.05
2019-01-23T10:17:31.272Z,98948.81
2019-01-23T10:18:34.908Z,98949.83
2019-01-23T10:19:38.438Z,98951.42
2019-01-23T10:20:41.981Z,98948.89
2019-01-23T10:21:45.696Z,98955.08
2019-01-23T10:22:49.338Z,98953.23
2019-01-23T10:23:52.872Z,98952.08
2019-01-23T10:24:56.410Z,98955.87
2019-01-23T10:26:00.018Z,98959.19
2019-01-23T10:27:03.533Z,98961.11
2019-01-23T10:28:07.197Z,98955.97
2019-01-23T10:29:10.668Z,98956.82
2019-01-23T10:30:15.669Z,98956.25
2019-01-23T10:31:19.137Z,98962.66
2019-01-23T10:32:22.687Z,98959.48
2019-01-23T10:33:26.207Z,98961.06
2019-01-23T10:34:29.755Z,98958.77
2019-01-23T10:35:33.300Z,98959.92
2019-01-23T10:36:36.883Z,98966.99
2019-01-23T10:37:40.507Z,98961.73
2019-01-23T10:38:44.083Z,98959.56
2019-01-23T10:39:47.641Z,98967.44
2019-01-23T10:40:52.423Z,98959.20
2019-01-23T10:41:56.056Z,98962.97
2019-01-23T10:42:59.665Z,98962.26
2019-01-23T10:44:03.254Z,98956.20
2019-01-23T10:45:09.125Z,98959.19
2019-01-23T10:46:12.714Z,98961.68
2019-01-23T10:47:16.257Z,98963.05
2019-01-23T10:48:19.946Z,98966.27
2019-01-23T10:49:23.525Z,98959.52
2019-01-23T10:50:27.086Z,98970.70
2019-01-23T10:51:30.592Z,98966.51
2019-01-23T10:52:34.159Z,98967.66
2019-01-23T10:53:37.628Z,98969.38
2019-01-23T10:54:41.272Z,98971.11
2019-01-23T10:55:44.900Z,98969.73
2019-01-23T10:56:48.543Z,98972.56
2019-01-23T10:57:52.188Z,98971.99
2019-01-23T10:58:55.729Z,98970.48
2019-01-23T10:59:59.328Z,98969.69
2019-01-23T11:01:02.865Z,98972.44
2019-01-23T11:02:06.507Z,98967.96
2019-01-23T11:03:10.763Z,98973.45
2019-01-23T11:04:14.435Z,98972.66
2019-01-23T11:05:20.606Z,98967.42
2019-01-23T11:06:24.201Z,98972.44
2019-01-23T11:07:27.673Z,98969.47
2019-01-23T11:08:31.187Z,98972.79
2019-01-23T11:09:34.823Z,98967.44
2019-01-23T11:10:38.381Z,98969.73
2019-01-23T11:11:42.036Z,98972.39
2019-01-23T11:12:45.580Z,98968.73
2019-01-23T11:13:49.101Z,98969.31
2019-01-23T11:14:52.684Z,98968.88
2019-01-23T11:15:57.604Z,98965.47
2019-01-23T11:17:01.403Z,98968.34
2019-01-23T11:18:06.108Z,98964.72
2019-01-23T11:19:09.737Z,98968.83
2019-01-23T11:20:15.989Z,98976.23
2019-01-23T11:21:19.635Z,98973.85
2019-01-23T11:22:26.799Z,98975.36
2019-01-23T11:23:30.773Z,98973.31
2019-01-23T11:24:34.323Z,98979.37
2019-01-23T11:25:37.893Z,98981.54
2019-01-23T11:26:41.454Z,98973.89
2019-01-23T11:27:45.671Z,98974.69
2019-01-23T11:28:49.182Z,98969.52
2019-01-23T11:29:52.721Z,98975.67
2019-01-23T11:30:56.237Z,98970.66
2019-01-23T11:31:59.946Z,98973.61
2019-01-23T11:33:03.510Z,98979.27
2019-01-23T11:34:07.107Z,98979.48
2019-01-23T11:35:11.038Z,98978.12
2019-01-23T11:36:14.585Z,98981.42
2019-01-23T11:37:18.165Z,98980.05
2019-01-23T11:38:21.714Z,98981.42
2019-01-23T11:39:25.408Z,98981.64
2019-01-23T11:40:31.046Z,98974.56
2019-01-23T11:41:34.661Z,98974.78
2019-01-23T11:42:38.340Z,98979.12
2019-01-23T11:43:41.956Z,98979.83
2019-01-23T11:44:45.513Z,98976.17
2019-01-23T11:45:49.678Z,98980.86
2019-01-23T11:46:53.217Z,98977.67
2019-01-23T11:47:56.950Z,98980.86
2019-01-23T11:49:00.516Z,98979.84
2019-01-23T11:50:05.865Z,98979.17
2019-01-23T11:51:09.425Z,98978.47
2019-01-23T11:52:12.982Z,98984.16
2019-01-23T11:53:16.564Z,98979.38
2019-01-23T11:54:20.060Z,98989.07
2019-01-23T11:55:23.649Z,98982.79
2019-01-23T11:56:27.288Z,98985.09
2019-01-23T11:57:30.762Z,98988.63
2019-01-23T11:58:34.418Z,98988.05
2019-01-23T11:59:37.981Z,98981.20
2019-01-23T12:00:41.701Z,98976.86
2019-01-23T12:01:45.398Z,98977.80
2019-01-23T12:02:49.034Z,98980.28
2019-01-23T12:03:52.599Z,98983.16
2019-01-23T12:04:56.180Z,98983.64
2019-01-23T12:05:59.856Z,98982.85
2019-01-23T12:07:03.416Z,98990.19
2019-01-23T12:08:07.070Z,98986.08
2019-01-23T12:09:10.922Z,98978.78
2019-01-23T12:10:17.335Z,98984.13
2019-01-23T12:11:20.939Z,98990.63
2019-01-23T12:12:24.427Z,98989.84
2019-01-23T12:13:28.118Z,98992.67
2019-01-23T12:14:31.624Z,98991.08
2019-01-23T12:15:40.766Z,98990.28
2019-01-23T12:16:40.519Z,98986.17
2019-01-23T12:17:44.164Z,98984.36
2019-01-23T12:18:47.843Z,98989.62
2019-01-23T12:19:51.367Z,98993.61
2019-01-23T12:20:55.135Z,98989.27
2019-01-23T12:22:00.275Z,98992.23
2019-01-23T12:23:04.115Z,98988.58
2019-01-23T12:24:07.843Z,98990.08
2019-01-23T12:25:12.582Z,98995.91
2019-01-23T12:26:16.434Z,98992.95
2019-01-23T12:27:20.179Z,98993.88
2019-01-23T12:28:23.779Z,98997.86
2019-01-23T12:29:27.446Z,98991.14
2019-01-23T12:30:33.591Z,98994.55
2019-01-23T12:31:37.256Z,98989.77
2019-01-23T12:32:40.925Z,98996.36
2019-01-23T12:33:44.558Z,98998.17